createdAt,value
2022-09-02T00:00:24.096Z,995.59
2022-09-02T00:01:24.766Z,995.58
2022-09-02T00:02:24.215Z,995.58
2022-09-02T00:03:24.329Z,995.58
2022-09-02T00:04:24.052Z,995.57
2022-09-02T00:05:24.053Z,995.51
2022-09-02T00:06:24.099Z,995.60
2022-09-02T00:07:24.086Z,995.43
2022-09-02T00:08:23.968Z,995.52
2022-09-02T00:09:24.034Z,995.49
2022-09-02T00:10:24.797Z,995.46
2022-09-02T00:11:24.809Z,995.52
2022-09-02T00:12:24.274Z,995.52
2022-09-02T00:13:24.866Z,995.56
2022-09-02T00:14:23.922Z,995.48
2022-09-02T00:15:23.900Z,995.52
2022-09-02T00:16:24.012Z,995.51
2022-09-02T00:17:23.900Z,995.46
2022-09-02T00:18:23.870Z,995.45
2022-09-02T00:19:23.893Z,995.44
2022-09-02T00:20:23.872Z,995.44
2022-09-02T00:21:23.892Z,995.41
2022-09-02T00:22:24.851Z,995.42
2022-09-02T00:23:23.851Z,995.44
2022-09-02T00:24:23.884Z,995.44
2022-09-02T00:25:23.835Z,995.40
2022-09-02T00:26:23.814Z,995.46
2022-09-02T00:27:23.824Z,995.37
2022-09-02T00:28:23.814Z,995.43
2022-09-02T00:29:23.821Z,995.42
2022-09-02T00:30:23.800Z,995.44
2022-09-02T00:31:23.822Z,995.43
2022-09-02T00:32:23.780Z,995.38
2022-09-02T00:33:23.768Z,995.35
2022-09-02T00:34:23.806Z,995.39
2022-09-02T00:35:23.751Z,995.33
2022-09-02T00:36:23.755Z,995.33
2022-09-02T00:37:23.751Z,995.34
2022-09-02T00:38:23.736Z,995.31
2022-09-02T00:39:23.756Z,995.32
2022-09-02T00:40:23.802Z,995.36
2022-09-02T00:41:23.703Z,995.31
2022-09-02T00:42:23.705Z,995.27
2022-09-02T00:43:23.693Z,995.24
2022-09-02T00:44:23.734Z,995.21
2022-09-02T00:45:23.753Z,995.24
2022-09-02T00:46:23.684Z,995.27
2022-09-02T00:47:23.674Z,995.20
2022-09-02T00:48:23.694Z,995.21
2022-09-02T00:49:23.812Z,995.18
2022-09-02T00:50:23.653Z,995.19
2022-09-02T00:51:23.659Z,995.19
2022-09-02T00:52:23.645Z,995.18
2022-09-02T00:53:23.625Z,995.14
2022-09-02T00:54:23.655Z,995.21
2022-09-02T00:55:23.631Z,995.23
2022-09-02T00:56:23.602Z,995.22
2022-09-02T00:57:23.603Z,995.20
2022-09-02T00:58:23.598Z,995.14
2022-09-02T00:59:23.627Z,995.22
2022-09-02T01:00:23.576Z,995.09
2022-09-02T01:01:23.651Z,995.15
2022-09-02T01:02:23.691Z,995.14
2022-09-02T01:03:23.621Z,995.13
2022-09-02T01:04:23.578Z,995.20
2022-09-02T01:05:23.570Z,995.19
2022-09-02T01:06:23.534Z,995.08
2022-09-02T01:07:23.554Z,995.07
2022-09-02T01:08:23.518Z,995.06
2022-09-02T01:09:23.550Z,995.05
2022-09-02T01:10:23.516Z,995.03
2022-09-02T01:11:23.519Z,995.06
2022-09-02T01:12:23.508Z,995.02
2022-09-02T01:13:23.495Z,995.07
2022-09-02T01:14:23.504Z,995.06
2022-09-02T01:15:23.472Z,995.08
2022-09-02T01:16:23.569Z,995.13
2022-09-02T01:17:23.466Z,995.06
2022-09-02T01:18:23.484Z,995.03
2022-09-02T01:19:23.477Z,995.06
2022-09-02T01:20:24.569Z,995.06
2022-09-02T01:21:23.461Z,995.02
2022-09-02T01:22:23.427Z,995.02
2022-09-02T01:23:23.425Z,995.02
2022-09-02T01:24:23.474Z,994.99
2022-09-02T01:25:23.417Z,995.02
2022-09-02T01:26:23.401Z,995.01
2022-09-02T01:27:23.418Z,994.98
2022-09-02T01:28:23.399Z,994.97
2022-09-02T01:29:23.458Z,994.99
2022-09-02T01:30:23.382Z,994.94
2022-09-02T01:31:23.398Z,994.95
2022-09-02T01:32:23.338Z,994.98
2022-09-02T01:33:23.528Z,995.03
2022-09-02T01:34:23.358Z,994.95
2022-09-02T01:35:23.327Z,994.95
2022-09-02T01:36:23.320Z,994.97
2022-09-02T01:37:24.263Z,994.90
2022-09-02T01:38:23.310Z,994.92
2022-09-02T01:39:23.334Z,994.96
2022-09-02T01:40:23.328Z,994.93
2022-09-02T01:41:23.291Z,994.95
2022-09-02T01:42:23.274Z,994.90
2022-09-02T01:43:23.421Z,994.95
2022-09-02T01:44:23.296Z,994.87
2022-09-02T01:45:23.252Z,994.90
2022-09-02T01:46:23.297Z,994.92
2022-09-02T01:47:23.251Z,994.89
2022-09-02T01:48:23.228Z,994.92
2022-09-02T01:49:23.252Z,994.95
2022-09-02T01:50:23.205Z,994.88
2022-09-02T01:51:23.218Z,994.84
2022-09-02T01:52:23.211Z,994.86
2022-09-02T01:53:23.309Z,994.82
2022-09-02T01:54:23.211Z,994.80
2022-09-02T01:55:23.223Z,994.79
2022-09-02T01:56:23.210Z,994.78
2022-09-02T01:57:23.174Z,994.75
2022-09-02T01:58:23.158Z,994.79
2022-09-02T01:59:23.180Z,994.75
2022-09-02T02:00:23.149Z,994.77
2022-09-02T02:01:23.171Z,994.74
2022-09-02T02:02:23.189Z,994.79
2022-09-02T02:03:23.256Z,994.72
2022-09-02T02:04:23.148Z,994.74
2022-09-02T02:05:23.141Z,994.79
2022-09-02T02:06:23.119Z,994.79
2022-09-02T02:07:23.146Z,994.75
2022-09-02T02:08:23.146Z,994.76
2022-09-02T02:09:23.115Z,994.81
2022-09-02T02:10:23.111Z,994.76
2022-09-02T02:11:23.110Z,994.75
2022-09-02T02:12:23.125Z,994.70
2022-09-02T02:13:23.191Z,994.80
2022-09-02T02:14:23.128Z,994.80
2022-09-02T02:16:09.996Z,994.75
2022-09-02T02:17:09.996Z,994.76
2022-09-02T02:18:09.985Z,994.80
2022-09-02T02:19:10.001Z,994.76
2022-09-02T02:20:09.981Z,994.79
2022-09-02T02:21:09.966Z,994.73
2022-09-02T02:22:09.954Z,994.72
2022-09-02T02:23:09.953Z,994.75
2022-09-02T02:24:10.037Z,994.70
2022-09-02T02:25:09.937Z,994.69
2022-09-02T02:26:09.925Z,994.75
2022-09-02T02:27:09.942Z,994.72
2022-09-02T02:28:09.934Z,994.70
2022-09-02T02:29:09.932Z,994.73
2022-09-02T02:30:11.031Z,994.68
2022-09-02T02:31:11.078Z,994.67
2022-09-02T02:32:11.030Z,994.68
2022-09-02T02:33:11.008Z,994.72
2022-09-02T02:34:11.033Z,994.68
2022-09-02T02:35:10.984Z,994.68
2022-09-02T02:36:10.986Z,994.69
2022-09-02T02:37:10.989Z,994.72
2022-09-02T02:38:14.336Z,994.65
2022-09-02T02:39:10.988Z,994.67
2022-09-02T02:40:11.016Z,994.64
2022-09-02T02:41:10.956Z,994.66
2022-09-02T02:42:10.982Z,994.67
2022-09-02T02:43:10.940Z,994.65
2022-09-02T02:44:10.950Z,994.65
2022-09-02T02:45:15.179Z,994.66
2022-09-02T02:46:10.999Z,994.65
2022-09-02T02:47:10.911Z,994.66
2022-09-02T02:48:10.905Z,994.67
2022-09-02T02:49:10.950Z,994.71
2022-09-02T02:50:10.890Z,994.67
2022-09-02T02:51:10.881Z,994.61
2022-09-02T02:52:10.894Z,994.69
2022-09-02T02:53:10.861Z,994.71
2022-09-02T02:54:10.868Z,994.68
2022-09-02T02:55:10.840Z,994.64
2022-09-02T02:56:10.866Z,994.70
2022-09-02T02:57:10.834Z,994.67
2022-09-02T02:58:10.844Z,994.70
2022-09-02T02:59:10.857Z,994.74
2022-09-02T03:00:10.827Z,994.65
2022-09-02T03:01:10.828Z,994.69
2022-09-02T03:02:10.902Z,994.68
2022-09-02T03:03:10.867Z,994.67
2022-09-02T03:04:10.821Z,994.70
2022-09-02T03:05:10.793Z,994.68
2022-09-02T03:06:10.787Z,994.64
2022-09-02T03:07:10.754Z,994.62
2022-09-02T03:08:10.762Z,994.63
2022-09-02T03:09:10.820Z,994.59
2022-09-02T03:10:10.763Z,994.66
2022-09-02T03:11:10.734Z,994.66
2022-09-02T03:12:10.731Z,994.63
2022-09-02T03:13:10.754Z,994.61
2022-09-02T03:14:11.754Z,994.63
2022-09-02T03:15:10.748Z,994.62
2022-09-02T03:16:10.760Z,994.59
2022-09-02T03:17:10.733Z,994.64
2022-09-02T03:18:11.446Z,994.62
2022-09-02T03:19:10.772Z,994.64
2022-09-02T03:20:10.734Z,994.61
2022-09-02T03:21:10.666Z,994.66
2022-09-02T03:22:10.691Z,994.64
2022-09-02T03:23:10.648Z,994.57
2022-09-02T03:24:10.684Z,994.63
2022-09-02T03:25:10.661Z,994.64
2022-09-02T03:26:10.638Z,994.64
2022-09-02T03:27:10.646Z,994.60
2022-09-02T03:28:10.617Z,994.59
2022-09-02T03:29:10.628Z,994.64
2022-09-02T03:30:10.601Z,994.62
2022-09-02T03:31:10.641Z,994.65
2022-09-02T03:32:10.592Z,994.68
2022-09-02T03:33:10.587Z,994.63
2022-09-02T03:34:10.594Z,994.64
2022-09-02T03:35:10.557Z,994.61
2022-09-02T03:36:10.563Z,994.59
2022-09-02T03:37:10.566Z,994.59
2022-09-02T03:38:10.552Z,994.61
2022-09-02T03:39:10.581Z,994.59
2022-09-02T03:40:10.641Z,994.52
2022-09-02T03:41:10.528Z,994.55
2022-09-02T03:42:15.135Z,994.56
2022-09-02T03:43:10.580Z,994.53
2022-09-02T03:44:10.523Z,994.55
2022-09-02T03:45:10.516Z,994.56
2022-09-02T03:46:10.565Z,994.55
2022-09-02T03:47:10.485Z,994.54
2022-09-02T03:48:11.477Z,994.57
2022-09-02T03:49:10.491Z,994.55
2022-09-02T03:50:10.470Z,994.56
2022-09-02T03:51:10.504Z,994.58
2022-09-02T03:52:10.467Z,994.49
2022-09-02T03:53:16.339Z,994.52
2022-09-02T03:54:11.502Z,994.51
2022-09-02T03:55:10.445Z,994.51
2022-09-02T03:56:10.480Z,994.51
2022-09-02T03:57:10.460Z,994.49
2022-09-02T03:58:10.437Z,994.49
2022-09-02T03:59:10.423Z,994.58
2022-09-02T04:00:10.393Z,994.54
2022-09-02T04:01:10.469Z,994.52
2022-09-02T04:02:10.506Z,994.53
2022-09-02T04:03:10.407Z,994.55
2022-09-02T04:04:10.415Z,994.48
2022-09-02T04:05:14.670Z,994.49
2022-09-02T04:06:11.376Z,994.52
2022-09-02T04:07:10.359Z,994.52
2022-09-02T04:08:10.336Z,994.53
2022-09-02T04:09:10.371Z,994.52
2022-09-02T04:10:10.360Z,994.48
2022-09-02T04:11:10.327Z,994.58
2022-09-02T04:12:10.310Z,994.53
2022-09-02T04:13:10.311Z,994.54
2022-09-02T04:14:10.332Z,994.53
2022-09-02T04:15:10.288Z,994.54
2022-09-02T04:16:10.598Z,994.53
2022-09-02T04:17:10.283Z,994.51
2022-09-02T04:18:10.268Z,994.53
2022-09-02T04:19:10.286Z,994.52
2022-09-02T04:20:10.258Z,994.52
2022-09-02T04:21:10.273Z,994.55
2022-09-02T04:22:10.251Z,994.55
2022-09-02T04:23:10.231Z,994.53
2022-09-02T04:24:11.252Z,994.49
2022-09-02T04:25:11.230Z,994.49
2022-09-02T04:26:10.250Z,994.57
2022-09-02T04:27:10.218Z,994.55
2022-09-02T04:28:10.201Z,994.50
2022-09-02T04:29:10.217Z,994.47
2022-09-02T04:30:10.198Z,994.49
2022-09-02T04:31:10.275Z,994.53
2022-09-02T04:32:10.188Z,994.55
2022-09-02T04:33:10.168Z,994.55
2022-09-02T04:34:10.193Z,994.49
2022-09-02T04:35:10.148Z,994.48
2022-09-02T04:36:10.155Z,994.53
2022-09-02T04:37:10.136Z,994.54
2022-09-02T04:38:10.179Z,994.52
2022-09-02T04:39:10.166Z,994.53
2022-09-02T04:40:10.155Z,994.53
2022-09-02T04:41:10.129Z,994.44
2022-09-02T04:42:10.124Z,994.49
2022-09-02T04:43:10.084Z,994.55
2022-09-02T04:44:10.158Z,994.48
2022-09-02T04:45:10.094Z,994.51
2022-09-02T04:46:10.134Z,994.46
2022-09-02T04:47:10.055Z,994.50
2022-09-02T04:48:10.066Z,994.45
2022-09-02T04:49:10.089Z,994.48
2022-09-02T04:50:10.071Z,994.52
2022-09-02T04:51:10.053Z,994.53
2022-09-02T04:52:10.045Z,994.52
2022-09-02T04:53:10.050Z,994.53
2022-09-02T04:54:10.053Z,994.54
2022-09-02T04:55:10.051Z,994.50
2022-09-02T04:56:10.027Z,994.50
2022-09-02T04:57:10.012Z,994.50
2022-09-02T04:58:10.022Z,994.54
2022-09-02T04:59:10.012Z,994.57
2022-09-02T05:00:09.982Z,994.59
2022-09-02T05:01:10.013Z,994.54
2022-09-02T05:02:10.159Z,994.53
2022-09-02T05:03:09.958Z,994.61
2022-09-02T05:04:10.053Z,994.56
2022-09-02T05:05:09.994Z,994.59
2022-09-02T05:06:09.935Z,994.58
2022-09-02T05:07:09.938Z,994.57
2022-09-02T05:08:09.932Z,994.62
2022-09-02T05:09:09.943Z,994.58
2022-09-02T05:10:09.923Z,994.58
2022-09-02T05:11:09.901Z,994.65
2022-09-02T05:12:09.900Z,994.58
2022-09-02T05:13:09.902Z,994.63
2022-09-02T05:14:09.899Z,994.62
2022-09-02T05:15:09.891Z,994.64
2022-09-02T05:16:09.976Z,994.60
2022-09-02T05:17:09.885Z,994.64
2022-09-02T05:18:09.844Z,994.64
2022-09-02T05:19:09.890Z,994.60
2022-09-02T05:20:09.841Z,994.62
2022-09-02T05:21:09.828Z,994.61
2022-09-02T05:22:09.819Z,994.58
2022-09-02T05:23:10.428Z,994.61
2022-09-02T05:24:09.837Z,994.57
2022-09-02T05:25:09.811Z,994.61
2022-09-02T05:26:10.011Z,994.58
2022-09-02T05:27:09.779Z,994.59
2022-09-02T05:28:09.775Z,994.65
2022-09-02T05:29:09.777Z,994.61
2022-09-02T05:30:10.017Z,994.60
2022-09-02T05:31:11.092Z,994.61
2022-09-02T05:32:10.446Z,994.57
2022-09-02T05:33:09.762Z,994.59
2022-09-02T05:34:09.754Z,994.59
2022-09-02T05:35:09.719Z,994.60
2022-09-02T05:36:09.738Z,994.59
2022-09-02T05:37:09.715Z,994.59
2022-09-02T05:38:09.718Z,994.58
2022-09-02T05:39:09.724Z,994.59
2022-09-02T05:40:09.771Z,994.60
2022-09-02T05:41:10.695Z,994.59
2022-09-02T05:42:09.683Z,994.63
2022-09-02T05:43:09.719Z,994.63
2022-09-02T05:44:09.704Z,994.66
2022-09-02T05:45:09.656Z,994.64
2022-09-02T05:46:09.763Z,994.68
2022-09-02T05:47:09.641Z,994.60
2022-09-02T05:48:09.729Z,994.60
2022-09-02T05:49:09.654Z,994.59
2022-09-02T05:50:09.631Z,994.61
2022-09-02T05:51:09.609Z,994.62
2022-09-02T05:52:09.621Z,994.51
2022-09-02T05:53:14.750Z,994.57
2022-09-02T05:54:10.639Z,994.58
2022-09-02T05:55:09.587Z,994.53
2022-09-02T05:56:09.581Z,994.59
2022-09-02T05:57:09.562Z,994.59
2022-09-02T05:58:09.595Z,994.57
2022-09-02T05:59:09.581Z,994.52
2022-09-02T06:00:09.585Z,994.51
2022-09-02T06:01:09.564Z,994.49
2022-09-02T06:02:09.592Z,994.53
2022-09-02T06:03:09.643Z,994.57
2022-09-02T06:04:10.564Z,994.50
2022-09-02T06:05:09.512Z,994.53
2022-09-02T06:06:09.522Z,994.49
2022-09-02T06:07:09.872Z,994.58
2022-09-02T06:08:09.576Z,994.55
2022-09-02T06:09:09.533Z,994.50
2022-09-02T06:10:09.495Z,994.53
2022-09-02T06:11:09.506Z,994.50
2022-09-02T06:12:09.572Z,994.53
2022-09-02T06:13:09.495Z,994.55
2022-09-02T06:14:09.522Z,994.52
2022-09-02T06:15:09.459Z,994.54
2022-09-02T06:16:09.566Z,994.48
2022-09-02T06:17:09.457Z,994.49
2022-09-02T06:18:09.437Z,994.49
2022-09-02T06:19:09.437Z,994.46
2022-09-02T06:20:09.425Z,994.48
2022-09-02T06:21:09.422Z,994.53
2022-09-02T06:22:11.541Z,994.46
2022-09-02T06:23:09.997Z,994.49
2022-09-02T06:24:09.427Z,994.54
2022-09-02T06:25:09.375Z,994.56
2022-09-02T06:26:09.373Z,994.53
2022-09-02T06:27:09.370Z,994.53
2022-09-02T06:28:09.396Z,994.48
2022-09-02T06:29:09.398Z,994.48
2022-09-02T06:30:09.344Z,994.51
2022-09-02T06:31:09.385Z,994.50
2022-09-02T06:32:09.336Z,994.51
2022-09-02T06:33:09.349Z,994.48
2022-09-02T06:34:09.336Z,994.44
2022-09-02T06:35:10.295Z,994.44
2022-09-02T06:36:09.313Z,994.52
2022-09-02T06:37:09.301Z,994.47
2022-09-02T06:38:09.292Z,994.48
2022-09-02T06:39:09.306Z,994.50
2022-09-02T06:40:09.292Z,994.48
2022-09-02T06:41:09.289Z,994.52
2022-09-02T06:42:09.273Z,994.53
2022-09-02T06:43:12.516Z,994.50
2022-09-02T06:44:09.271Z,994.63
2022-09-02T06:45:10.624Z,994.48
2022-09-02T06:46:09.286Z,994.53
2022-09-02T06:47:09.223Z,994.54
2022-09-02T06:48:09.223Z,994.48
2022-09-02T06:49:09.236Z,994.52
2022-09-02T06:50:09.193Z,994.54
2022-09-02T06:51:09.192Z,994.56
2022-09-02T06:52:09.214Z,994.52
2022-09-02T06:53:09.190Z,994.53
2022-09-02T06:54:09.200Z,994.59
2022-09-02T06:55:09.176Z,994.58
2022-09-02T06:56:09.186Z,994.53
2022-09-02T06:57:09.163Z,994.60
2022-09-02T06:58:09.165Z,994.64
2022-09-02T06:59:12.269Z,994.58
2022-09-02T07:00:09.165Z,994.52
2022-09-02T07:01:09.207Z,994.63
2022-09-02T07:02:09.320Z,994.51
2022-09-02T07:03:09.135Z,994.57
2022-09-02T07:04:09.131Z,994.55
2022-09-02T07:05:09.108Z,994.59
2022-09-02T07:06:09.111Z,994.52
2022-09-02T07:07:09.114Z,994.56
2022-09-02T07:08:09.088Z,994.56
2022-09-02T07:09:09.102Z,994.59
2022-09-02T07:10:09.080Z,994.58
2022-09-02T07:11:09.062Z,994.53
2022-09-02T07:12:09.054Z,994.52
2022-09-02T07:13:09.049Z,994.52
2022-09-02T07:14:09.064Z,994.51
2022-09-02T07:15:09.028Z,994.53
2022-09-02T07:16:09.063Z,994.53
2022-09-02T07:17:09.082Z,994.52
2022-09-02T07:18:09.013Z,994.57
2022-09-02T07:19:14.024Z,994.51
2022-09-02T07:20:10.019Z,994.52
2022-09-02T07:21:09.010Z,994.51
2022-09-02T07:22:09.014Z,994.56
2022-09-02T07:23:08.987Z,994.55
2022-09-02T07:24:08.992Z,994.57
2022-09-02T07:25:08.967Z,994.56
2022-09-02T07:26:08.963Z,994.53
2022-09-02T07:27:08.941Z,994.62
2022-09-02T07:28:08.957Z,994.60
2022-09-02T07:29:09.951Z,994.62
2022-09-02T07:30:08.925Z,994.60
2022-09-02T07:31:09.070Z,994.64
2022-09-02T07:32:08.923Z,994.64
2022-09-02T07:33:08.912Z,994.59
2022-09-02T07:34:08.921Z,994.59
2022-09-02T07:35:08.907Z,994.64
2022-09-02T07:36:12.324Z,994.61
2022-09-02T07:37:11.121Z,994.50
2022-09-02T07:38:09.875Z,994.62
2022-09-02T07:39:08.873Z,994.56
2022-09-02T07:40:08.894Z,994.58
2022-09-02T07:41:08.853Z,994.58
2022-09-02T07:42:08.835Z,994.59
2022-09-02T07:43:08.835Z,994.58
2022-09-02T07:44:08.860Z,994.61
2022-09-02T07:45:08.830Z,994.56
2022-09-02T07:46:08.850Z,994.56
2022-09-02T07:47:08.804Z,994.57
2022-09-02T07:48:08.797Z,994.61
2022-09-02T07:49:09.248Z,994.57
2022-09-02T07:50:20.175Z,994.62
2022-09-02T07:51:10.763Z,994.58
2022-09-02T07:52:08.759Z,994.68
2022-09-02T07:53:08.763Z,994.62
2022-09-02T07:54:08.777Z,994.56
2022-09-02T07:55:13.977Z,994.58
2022-09-02T07:56:09.759Z,994.59
2022-09-02T07:57:08.729Z,994.59
2022-09-02T07:58:08.716Z,994.54
2022-09-02T07:59:08.723Z,994.52
2022-09-02T08:00:08.712Z,994.54
2022-09-02T08:01:08.822Z,994.56
2022-09-02T08:02:08.734Z,994.53
2022-09-02T08:04:08.696Z,994.55
2022-09-02T08:05:08.675Z,994.45
2022-09-02T08:06:08.673Z,994.47
2022-09-02T08:07:08.655Z,994.48
2022-09-02T08:08:08.653Z,994.44
2022-09-02T08:09:08.678Z,994.49
2022-09-02T08:10:08.639Z,994.44
2022-09-02T08:11:08.619Z,994.50
2022-09-02T08:12:08.633Z,994.47
2022-09-02T08:13:08.654Z,994.51
2022-09-02T08:14:08.629Z,994.45
2022-09-02T08:15:08.585Z,994.44
2022-09-02T08:16:08.672Z,994.53
2022-09-02T08:17:08.596Z,994.46
2022-09-02T08:18:08.598Z,994.53
2022-09-02T08:19:09.622Z,994.49
2022-09-02T08:20:12.307Z,994.47
2022-09-02T08:21:09.570Z,994.49
2022-09-02T08:22:08.564Z,994.46
2022-09-02T08:23:11.752Z,994.47
2022-09-02T08:24:10.570Z,994.52
2022-09-02T08:25:08.543Z,994.52
2022-09-02T08:26:08.522Z,994.54
2022-09-02T08:27:08.536Z,994.49
2022-09-02T08:28:08.700Z,994.56
2022-09-02T08:29:08.537Z,994.54
2022-09-02T08:30:08.498Z,994.60
2022-09-02T08:31:08.520Z,994.52
2022-09-02T08:32:08.535Z,994.51
2022-09-02T08:33:08.486Z,994.47
2022-09-02T08:34:08.492Z,994.52
2022-09-02T08:35:08.489Z,994.43
2022-09-02T08:36:08.520Z,994.47
2022-09-02T08:37:08.446Z,994.43
2022-09-02T08:38:08.443Z,994.38
2022-09-02T08:39:08.481Z,994.41
2022-09-02T08:40:08.527Z,994.43
2022-09-02T08:41:08.418Z,994.45
2022-09-02T08:42:09.424Z,994.43
2022-09-02T08:43:08.409Z,994.48
2022-09-02T08:44:08.427Z,994.44
2022-09-02T08:45:08.400Z,994.46
2022-09-02T08:46:08.418Z,994.43
2022-09-02T08:47:08.385Z,994.45
2022-09-02T08:48:08.390Z,994.40
2022-09-02T08:49:08.419Z,994.38
2022-09-02T08:50:08.358Z,994.38
2022-09-02T08:51:08.375Z,994.41
2022-09-02T08:52:08.343Z,994.42
2022-09-02T08:53:08.333Z,994.36
2022-09-02T08:54:08.361Z,994.44
2022-09-02T08:55:08.333Z,994.35
2022-09-02T08:56:08.320Z,994.31
2022-09-02T08:57:08.318Z,994.37
2022-09-02T08:58:08.294Z,994.34
2022-09-02T08:59:08.314Z,994.36
2022-09-02T09:00:08.310Z,994.31
2022-09-02T09:01:08.376Z,994.31
2022-09-02T09:02:08.294Z,994.33
2022-09-02T09:03:08.347Z,994.27
2022-09-02T09:04:08.299Z,994.26
2022-09-02T09:05:08.266Z,994.26
2022-09-02T09:06:08.294Z,994.26
2022-09-02T09:07:08.272Z,994.21
2022-09-02T09:08:10.874Z,994.23
2022-09-02T09:09:09.247Z,994.28
2022-09-02T09:10:08.214Z,994.25
2022-09-02T09:11:08.203Z,994.13
2022-09-02T09:12:08.220Z,994.14
2022-09-02T09:13:08.212Z,994.18
2022-09-02T09:14:08.207Z,994.17
2022-09-02T09:15:08.174Z,994.12
2022-09-02T09:16:08.285Z,994.17
2022-09-02T09:17:08.172Z,994.12
2022-09-02T09:18:08.174Z,994.12
2022-09-02T09:19:08.831Z,994.14
2022-09-02T09:20:09.145Z,994.07
2022-09-02T09:21:08.199Z,994.10
2022-09-02T09:22:08.142Z,994.09
2022-09-02T09:23:08.147Z,994.17
2022-09-02T09:24:08.140Z,994.12
2022-09-02T09:25:08.130Z,994.11
2022-09-02T09:26:08.099Z,994.07
2022-09-02T09:27:08.093Z,994.05
2022-09-02T09:28:08.099Z,994.07
2022-09-02T09:29:08.104Z,993.97
2022-09-02T09:30:12.842Z,994.00
2022-09-02T09:31:09.091Z,994.02
2022-09-02T09:32:08.068Z,994.02
2022-09-02T09:33:08.057Z,994.02
2022-09-02T09:34:08.093Z,993.98
2022-09-02T09:35:08.042Z,994.03
2022-09-02T09:36:08.037Z,993.89
2022-09-02T09:37:08.032Z,993.91
2022-09-02T09:38:08.025Z,993.93
2022-09-02T09:39:08.033Z,993.92
2022-09-02T09:40:08.061Z,993.85
2022-09-02T09:41:08.001Z,993.89
2022-09-02T09:42:07.982Z,993.90
2022-09-02T09:43:14.284Z,993.83
2022-09-02T09:44:09.005Z,993.81
2022-09-02T09:45:07.974Z,993.83
2022-09-02T09:46:08.024Z,993.81
2022-09-02T09:47:07.960Z,993.82
2022-09-02T09:48:07.963Z,993.81
2022-09-02T09:49:07.973Z,993.79
2022-09-02T09:50:07.939Z,993.76
2022-09-02T09:51:07.943Z,993.72
2022-09-02T09:52:07.941Z,993.71
2022-09-02T09:53:07.920Z,993.73
2022-09-02T09:54:07.926Z,993.72
2022-09-02T09:55:07.912Z,993.68
2022-09-02T09:56:07.891Z,993.66
2022-09-02T09:57:07.895Z,993.58
2022-09-02T09:58:07.885Z,993.60
2022-09-02T09:59:07.904Z,993.63
2022-09-02T10:00:07.864Z,993.58
2022-09-02T10:01:07.935Z,993.59
2022-09-02T10:02:07.917Z,993.55
2022-09-02T10:03:07.865Z,993.61
2022-09-02T10:04:20.664Z,993.58
2022-09-02T10:05:09.846Z,993.61
2022-09-02T10:06:07.854Z,993.60
2022-09-02T10:07:07.833Z,993.54
2022-09-02T10:08:15.285Z,993.47
2022-09-02T10:09:08.863Z,993.46
2022-09-02T10:10:07.804Z,993.43
2022-09-02T10:11:07.809Z,993.48
2022-09-02T10:12:07.811Z,993.53
2022-09-02T10:13:07.865Z,993.52
2022-09-02T10:14:07.805Z,993.51
2022-09-02T10:15:07.778Z,993.52
2022-09-02T10:16:07.889Z,993.48
2022-09-02T10:17:07.750Z,993.43
2022-09-02T10:18:07.753Z,993.46
2022-09-02T10:19:07.765Z,993.48
2022-09-02T10:20:07.745Z,993.44
2022-09-02T10:21:15.405Z,993.41
2022-09-02T10:22:09.720Z,993.30
2022-09-02T10:23:07.714Z,993.33
2022-09-02T10:24:07.739Z,993.38
2022-09-02T10:25:07.711Z,993.43
2022-09-02T10:26:07.704Z,993.41
2022-09-02T10:27:07.765Z,993.41
2022-09-02T10:28:07.711Z,993.40
2022-09-02T10:29:07.695Z,993.43
2022-09-02T10:30:07.704Z,993.49
2022-09-02T10:31:07.677Z,993.48
2022-09-02T10:32:07.648Z,993.36
2022-09-02T10:33:07.666Z,993.37
2022-09-02T10:34:07.668Z,993.35
2022-09-02T10:35:07.635Z,993.39
2022-09-02T10:36:07.636Z,993.36
2022-09-02T10:37:07.622Z,993.36
2022-09-02T10:38:07.609Z,993.31
2022-09-02T10:39:07.661Z,993.32
2022-09-02T10:40:07.664Z,993.34
2022-09-02T10:41:07.598Z,993.31
2022-09-02T10:42:07.589Z,993.35
2022-09-02T10:43:08.306Z,993.32
2022-09-02T10:44:07.582Z,993.31
2022-09-02T10:45:07.558Z,993.34
2022-09-02T10:46:07.552Z,993.29
2022-09-02T10:47:07.659Z,993.28
2022-09-02T10:48:07.536Z,993.21
2022-09-02T10:49:07.553Z,993.28
2022-09-02T10:50:07.553Z,993.18
2022-09-02T10:51:07.543Z,993.20
2022-09-02T10:52:07.528Z,993.18
2022-09-02T10:53:09.507Z,993.09
2022-09-02T10:54:07.534Z,993.24
2022-09-02T10:55:07.523Z,993.19
2022-09-02T10:56:07.478Z,993.15
2022-09-02T10:57:07.473Z,993.13
2022-09-02T10:58:07.474Z,993.16
2022-09-02T10:59:07.482Z,993.15
2022-09-02T11:00:07.462Z,993.14
2022-09-02T11:01:07.493Z,993.20
2022-09-02T11:02:07.459Z,993.15
2022-09-02T11:03:07.494Z,993.20
2022-09-02T11:04:08.299Z,993.16
2022-09-02T11:05:07.443Z,993.22
2022-09-02T11:06:07.465Z,993.19
2022-09-02T11:07:07.432Z,993.11
2022-09-02T11:08:07.430Z,993.06
2022-09-02T11:09:07.439Z,993.07
2022-09-02T11:10:07.413Z,993.03
2022-09-02T11:11:07.430Z,993.11
2022-09-02T11:12:07.395Z,993.08
2022-09-02T11:13:07.420Z,993.08
2022-09-02T11:14:07.426Z,993.01
2022-09-02T11:15:07.385Z,993.06
2022-09-02T11:16:07.466Z,992.98
2022-09-02T11:17:12.899Z,993.02
2022-09-02T11:18:07.391Z,993.01
2022-09-02T11:19:07.397Z,993.06
2022-09-02T11:20:07.344Z,993.08
2022-09-02T11:21:07.366Z,993.05
2022-09-02T11:22:07.333Z,993.06
2022-09-02T11:23:07.326Z,992.99
2022-09-02T11:24:07.349Z,992.96
2022-09-02T11:25:07.364Z,992.90
2022-09-02T11:26:07.357Z,992.94
2022-09-02T11:27:15.794Z,992.96
2022-09-02T11:28:08.312Z,992.95
2022-09-02T11:29:07.341Z,992.92
2022-09-02T11:30:07.286Z,992.93
2022-09-02T11:31:07.296Z,992.95
2022-09-02T11:32:07.275Z,992.96
2022-09-02T11:33:07.274Z,993.01
2022-09-02T11:34:07.275Z,992.99
2022-09-02T11:35:07.262Z,992.98
2022-09-02T11:36:07.273Z,992.99
2022-09-02T11:37:07.268Z,992.90
2022-09-02T11:38:07.326Z,993.00
2022-09-02T11:39:07.259Z,992.94
2022-09-02T11:40:30.291Z,992.84
2022-09-02T11:42:09.292Z,992.86
2022-09-02T11:43:07.213Z,992.85
2022-09-02T11:44:07.252Z,992.77
2022-09-02T11:45:07.277Z,992.75
2022-09-02T11:46:07.240Z,992.82
2022-09-02T11:47:07.183Z,992.81
2022-09-02T11:48:07.179Z,992.85
2022-09-02T11:49:08.445Z,992.87
2022-09-02T11:50:08.157Z,992.82
2022-09-02T11:51:07.174Z,992.87
2022-09-02T11:52:07.161Z,992.83
2022-09-02T11:53:07.194Z,992.81
2022-09-02T11:54:07.157Z,992.75
2022-09-02T11:55:07.122Z,992.78
2022-09-02T11:56:07.127Z,992.72
2022-09-02T11:57:07.148Z,992.71
2022-09-02T11:58:07.124Z,992.73
2022-09-02T11:59:07.128Z,992.71
2022-09-02T12:00:07.103Z,992.63
2022-09-02T12:01:07.102Z,992.64
2022-09-02T12:02:08.090Z,992.67
2022-09-02T12:03:35.590Z,992.71
2022-09-02T12:04:56.031Z,992.64
2022-09-02T12:05:09.640Z,992.69
2022-09-02T12:06:07.117Z,992.67
2022-09-02T12:07:09.727Z,992.60
2022-09-02T12:08:08.052Z,992.64
2022-09-02T12:09:07.074Z,992.65
2022-09-02T12:10:07.112Z,992.62
2022-09-02T12:11:07.025Z,992.60
2022-09-02T12:12:07.028Z,992.65
2022-09-02T12:13:08.495Z,992.60
2022-09-02T12:14:08.054Z,992.59
2022-09-02T12:15:07.031Z,992.54
2022-09-02T12:16:07.032Z,992.52
2022-09-02T12:17:06.995Z,992.50
2022-09-02T12:18:06.984Z,992.54
2022-09-02T12:19:06.988Z,992.52
2022-09-02T12:20:06.979Z,992.55
2022-09-02T12:21:06.970Z,992.53
2022-09-02T12:22:06.966Z,992.48
2022-09-02T12:23:06.961Z,992.48
2022-09-02T12:24:06.948Z,992.38
2022-09-02T12:25:06.971Z,992.43
2022-09-02T12:26:06.941Z,992.35
2022-09-02T12:27:06.929Z,992.43
2022-09-02T12:28:06.919Z,992.44
2022-09-02T12:29:06.920Z,992.45
2022-09-02T12:30:06.923Z,992.39
2022-09-02T12:31:06.946Z,992.37